Latest Weather Observations for Kingfish B

IDV60801

Issued at 6:02 am EDT Saturday 21 October 2017 (issued every 30 minutes, with the page automatically refreshed every 10 minutes)

About weather observations | Map of weather stations | Latest weather observations for VIC | Other Formats
Station Details ID: 400139 Name: KINGFISH B (PLATFORM) Lat: -38.60 Lon: 148.19 Height: 31.4 m
Data from the previous 72 hours. | See also: Recent months for locations in Victoria
Date/Time
EDT
Temp
°C
App
Temp
°C
Dew
Point
°C
Rel
Hum
%
Delta-T
°C
Wind Press
QNH
hPa
Press
MSL
hPa
Rain since
9am
mm
Dir  Spd
km/h
Gust
km/h
Spd
kts
Gust
kts
21/05:50am 12.3 3.2 6.1 66 2.9 SW 43 50 23 27 1023.2 - -
21/05:40am 12.2 2.5 6.0 66 2.9 SW 46 52 25 28 1023.2 - -
21/05:30am 12.3 3.2 5.9 65 3.0 WSW 43 50 23 27 1023.1 - -
21/05:20am 12.3 3.6 6.1 66 2.9 WSW 41 54 22 29 1023.0 - -
21/05:10am 12.3 3.0 6.1 66 2.9 WSW 44 54 24 29 1022.8 - -
21/05:00am 12.3 3.2 5.8 64 3.0 WSW 43 48 23 26 1022.9 - -
21/04:50am 12.3 3.2 5.9 65 3.0 SW 43 54 23 29 1023.1 - -
21/04:40am 12.3 3.6 5.9 65 3.0 WSW 41 50 22 27 1023.1 - -
21/04:30am 12.2 2.8 5.3 62 3.2 SW 44 54 24 29 1023.0 - -
21/04:20am 12.2 2.5 5.6 64 3.1 SW 46 54 25 29 1023.1 - -
21/04:10am 12.2 3.1 5.7 64 3.0 SW 43 52 23 28 1023.3 - -
21/04:00am 12.2 3.1 5.7 64 3.0 SW 43 54 23 29 1023.4 - -
21/03:50am 12.2 2.8 5.6 64 3.1 SW 44 52 24 28 1023.6 - -
21/03:40am 12.3 3.2 5.7 64 3.1 SW 43 50 23 27 1023.4 - -
21/03:30am 12.2 2.4 5.3 62 3.2 SW 46 54 25 29 1023.6 - -
21/03:20am 12.3 2.9 5.6 63 3.1 SW 44 50 24 27 1023.8 - -
21/03:10am 12.3 3.5 5.4 63 3.2 SW 41 50 22 27 1023.8 - -
21/03:00am 12.4 3.3 5.9 64 3.1 SW 43 50 23 27 1023.9 - -
21/02:50am 12.4 3.3 5.9 64 3.1 WSW 43 52 23 28 1023.9 - -
21/02:40am 12.4 3.1 6.1 65 3.0 WSW 44 54 24 29 1023.9 - -
21/02:30am 12.4 4.1 6.0 65 3.0 WSW 39 52 21 28 1024.2 - -
21/02:20am 12.4 4.5 6.0 65 3.0 SW 37 46 20 25 1024.4 - -
21/02:10am 12.3 3.4 5.2 62 3.3 WSW 41 50 22 27 1024.4 - -
21/02:00am 12.4 3.6 5.5 63 3.2 WSW 41 48 22 26 1024.3 - -
21/01:50am 12.4 3.3 5.7 63 3.1 WSW 43 52 23 28 1024.2 - -
21/01:40am 12.4 3.3 5.8 64 3.1 WSW 43 50 23 27 1024.6 - -
21/01:30am 12.4 4.0 5.6 63 3.2 WSW 39 46 21 25 1024.9 - -
21/01:20am 12.5 3.7 5.5 62 3.3 WSW 41 50 22 27 1024.8 - -
21/01:10am 12.6 3.3 5.7 63 3.2 WSW 44 52 24 28 1024.6 - -
21/01:00am 12.5 3.2 5.1 60 3.4 WSW 43 50 23 27 1024.7 - -
21/12:50am 12.9 3.6 5.2 59 3.6 WSW 43 48 23 26 1025.0 - -
21/12:40am 13.9 4.7 6.5 61 3.6 WSW 44 50 24 27 1025.2 - -
21/12:30am 12.5 3.3 6.3 66 2.9 WSW 44 52 24 28 1025.1 - -
21/12:20am 12.4 2.8 6.2 66 2.9 WSW 46 56 25 30 1025.0 - -
21/12:10am 12.5 2.9 6.2 65 3.0 WSW 46 54 25 29 1025.1 - -
21/12:00am 12.4 3.7 5.9 64 3.1 WSW 41 50 22 27 1025.3 - -
 
Date/Time
EDT
Temp
°C
App
Temp
°C
Dew
Point
°C
Rel
Hum
%
Delta-T
°C
Wind Press
QNH
hPa
Press
MSL
hPa
Rain since
9am
mm
Dir  Spd
km/h
Gust
km/h
Spd
kts
Gust
kts
20/11:50pm 12.3 3.5 5.6 63 3.1 WSW 41 48 22 26 1025.4 - -
20/11:40pm 12.4 3.1 5.8 64 3.1 SW 44 52 24 28 1025.5 - -
20/11:30pm 12.5 3.8 5.9 64 3.1 SW 41 50 22 27 1025.7 - -
20/11:20pm 12.5 3.2 5.7 63 3.2 WSW 44 52 24 28 1025.3 - -
20/11:10pm 12.4 3.3 5.7 63 3.1 WSW 43 50 23 27 1025.6 - -
20/11:00pm 12.5 3.3 5.5 62 3.3 SW 43 50 23 27 1025.8 - -
20/10:50pm 12.5 3.7 5.4 62 3.3 SW 41 50 22 27 1025.9 - -
20/10:40pm 12.5 3.8 6.0 64 3.1 WSW 41 54 22 29 1026.0 - -
20/10:30pm 12.5 3.7 5.5 62 3.3 SW 41 50 22 27 1025.9 - -
20/10:20pm 12.4 3.3 5.8 64 3.1 WSW 43 52 23 28 1025.8 - -
20/10:10pm 12.5 3.2 6.0 64 3.1 WSW 44 57 24 31 1025.7 - -
20/10:00pm 12.4 3.7 5.9 64 3.1 WSW 41 50 22 27 1025.9 - -
20/09:50pm 12.4 3.3 5.8 64 3.1 WSW 43 56 23 30 1025.9 - -
20/09:40pm 12.4 3.3 5.7 63 3.1 WSW 43 52 23 28 1026.0 - -
20/09:30pm 12.4 2.3 5.6 63 3.2 WSW 48 54 26 29 1025.7 - -
20/09:20pm 12.4 2.3 5.7 63 3.1 WSW 48 54 26 29 1025.8 - -
20/09:10pm 12.4 2.4 6.0 65 3.0 WSW 48 56 26 30 1025.6 - -
20/09:00pm 12.5 2.5 6.1 65 3.0 SW 48 54 26 29 1025.8 - -
20/08:50pm 12.4 2.7 5.9 64 3.1 SW 46 56 25 30 1025.9 - -
20/08:40pm 12.4 2.0 5.9 64 3.1 WSW 50 57 27 31 1025.4 - -
20/08:30pm 12.5 2.1 6.2 65 3.0 SW 50 59 27 32 1025.6 - -
20/08:20pm 12.6 2.6 6.3 65 3.0 WSW 48 57 26 31 1025.5 - -
20/08:10pm 12.5 2.1 6.1 65 3.0 WSW 50 57 27 31 1025.2 - -
20/08:00pm 12.5 2.1 6.1 65 3.0 SW 50 61 27 33 1025.5 - -
20/07:50pm 12.6 2.3 6.3 65 3.0 WSW 50 57 27 31 1025.2 - -
20/07:40pm 12.6 2.2 6.2 65 3.0 SW 50 59 27 32 1025.1 - -
20/07:30pm 12.8 2.1 6.4 65 3.0 WSW 52 59 28 32 1025.0 - -
20/07:20pm 12.8 2.8 6.3 64 3.1 WSW 48 56 26 30 1025.2 - -
20/07:10pm 12.8 1.7 6.3 64 3.1 SW 54 63 29 34 1025.2 - -
20/07:00pm 12.9 1.4 6.4 64 3.1 SW 56 63 30 34 1025.2 - -
20/06:50pm 13.0 1.5 6.4 64 3.1 SW 56 65 30 35 1025.0 - -
20/06:40pm 13.1 1.7 6.5 64 3.2 SW 56 63 30 34 1024.7 - -
20/06:30pm 13.1 2.0 6.4 64 3.2 SW 54 61 29 33 1024.8 - -
20/06:20pm 13.3 2.6 6.5 63 3.3 SW 52 61 28 33 1024.9 - -
20/06:10pm 13.3 2.5 6.2 62 3.4 SW 52 63 28 34 1024.9 - -
20/06:00pm 13.3 1.8 6.2 62 3.4 SW 56 63 30 34 1024.5 - -
20/05:50pm 13.4 2.0 6.6 63 3.3 SW 56 65 30 35 1024.7 - -
20/05:40pm 13.3 1.9 6.6 64 3.2 SW 56 63 30 34 1024.5 - -
20/05:30pm 13.3 2.2 6.4 63 3.3 SW 54 63 29 34 1024.4 - -
20/05:20pm 13.3 1.8 6.3 62 3.3 SW 56 65 30 35 1024.3 - -
20/05:10pm 13.2 2.0 6.1 62 3.4 SW 54 63 29 34 1024.9 - -
20/05:00pm 13.4 1.9 6.3 62 3.4 SW 56 67 30 36 1024.4 - -
20/04:50pm 13.4 2.3 6.5 63 3.3 SW 54 65 29 35 1024.6 - -
20/04:40pm 13.5 2.5 6.7 63 3.3 SW 54 61 29 33 1024.5 - -
20/04:30pm 13.5 2.0 6.4 62 3.4 SW 56 65 30 35 1024.2 - -
20/04:20pm 13.5 1.9 6.0 60 3.6 SW 56 67 30 36 1024.4 - -
20/04:10pm 13.5 1.7 5.5 58 3.8 SW 57 67 31 36 1024.5 - -
20/04:00pm 13.6 2.0 5.7 59 3.7 SW 56 67 30 36 1024.6 - -
20/03:50pm 13.6 1.9 6.1 60 3.6 SW 57 63 31 34 1024.6 - -
20/03:40pm 13.6 1.9 6.2 61 3.5 SW 57 67 31 36 1024.3 - -
20/03:30pm 13.6 2.0 6.5 62 3.4 SW 57 63 31 34 1024.5 - -
20/03:20pm 13.7 2.2 6.4 61 3.5 SW 56 63 30 34 1024.4 - -
20/03:10pm 13.8 2.2 6.5 61 3.5 SW 57 67 31 36 1024.8 - -
20/03:00pm 14.2 3.2 6.7 60 3.6 SW 54 67 29 36 1024.4 - -
20/02:50pm 14.2 2.8 6.6 60 3.7 WSW 56 61 30 33 1023.9 - -
20/02:40pm 13.9 2.8 6.3 60 3.6 SW 54 61 29 33 1024.1 - -
20/02:30pm 13.9 3.6 6.3 60 3.6 SW 50 59 27 32 1024.9 - -
20/02:20pm 14.0 4.4 6.4 60 3.7 SW 46 56 25 30 1024.4 - -
20/02:10pm 14.0 3.1 5.4 56 4.0 WSW 52 61 28 33 1024.1 - -
20/02:00pm 14.2 3.0 5.8 57 4.0 WSW 54 63 29 34 1024.1 - -
20/01:50pm 14.4 3.7 6.6 59 3.8 WSW 52 59 28 32 1024.3 - -
20/01:40pm 14.6 4.0 7.1 60 3.7 SW 52 61 28 33 1024.4 - -
20/01:30pm 14.9 4.8 7.3 60 3.7 SW 50 57 27 31 1024.6 - -
20/01:20pm 14.9 4.6 6.3 56 4.2 WSW 50 57 27 31 1024.1 - -
20/01:10pm 15.0 5.5 6.6 57 4.1 WSW 46 54 25 29 1024.2 - -
20/01:00pm 15.1 5.2 6.6 57 4.1 WSW 48 56 26 30 1024.2 - -
20/12:50pm 15.2 5.0 6.8 57 4.1 WSW 50 56 27 30 1024.0 - -
20/12:30pm 15.2 5.2 6.0 54 4.4 SW 48 59 26 32 1024.4 - -

Other Formats:

Comma delimited format used in spreadsheet applications
http://www.bom.gov.au/fwo/IDV60801/IDV60801.55039.axf

JavaScript Object Notation format (JSON) in row-major order
http://www.bom.gov.au/fwo/IDV60801/IDV60801.55039.json